Time;durP1;ratioP1;P1;durP2;ratioP2;P2;SDS_P1;SDS_P2;PMS_P1;PMS_P2;Temp;Humidity;BMP_temperature;BMP_pressure;BME280_temperature;BME280_humidity;BME280_pressure;Samples;Min_cycle;Max_cycle;Signal;HPM_P1;HPM_P2
2022/08/12 00:44:54;;;;;;;11.48;9.55;;;;;;;22.34;71.49;100299.65;1774665;79;21030;-77
2022/08/12 00:47:21;;;;;;;10.70;9.60;;;;;;;22.31;71.69;100300.06;1799072;79;20996;-76
2022/08/12 00:49:50;;;;;;;10.45;9.48;;;;;;;22.27;71.96;100296.40;1782417;78;21054;-76
2022/08/12 00:52:18;;;;;;;13.18;10.10;;;;;;;22.26;71.99;100294.74;1796172;79;21721;-76
2022/08/12 00:54:52;;;;;;;11.55;10.30;;;;;;;22.25;72.05;100303.02;1786169;79;21028;-77
2022/08/12 00:57:24;;;;;;;10.68;9.40;;;;;;;22.24;72.12;100302.70;1784535;79;21006;-75
2022/08/12 00:59:55;;;;;;;13.60;10.72;;;;;;;22.23;72.23;100288.42;1778549;79;21372;-76
2022/08/12 01:02:27;;;;;;;11.78;10.30;;;;;;;22.23;72.31;100288.94;1791202;79;21051;-76
2022/08/12 01:13:20;;;;;;;11.75;10.55;;;;;;;22.18;72.47;100281.45;1772917;79;21055;-76
2022/08/12 01:15:53;;;;;;;11.40;10.30;;;;;;;22.16;72.57;100274.63;1779910;79;21016;-76
2022/08/12 01:18:23;;;;;;;12.45;9.95;;;;;;;22.14;72.61;100276.69;1775986;79;21807;-77
2022/08/12 01:21:16;;;;;;;10.93;9.83;;;;;;;;;;1780675;79;21067;-76
2022/08/12 01:23:52;;;;;;;10.80;9.85;;;;;;;;;;1780075;79;21019;-76
2022/08/12 01:26:22;;;;;;;10.68;9.75;;;;;;;22.10;72.58;100278.95;1772095;79;21043;-83
2022/08/12 01:28:54;;;;;;;16.05;10.48;;;;;;;22.05;72.55;100266.57;1773209;79;21066;-75
2022/08/12 01:31:21;;;;;;;11.60;10.58;;;;;;;22.07;72.58;100275.30;1781294;79;21818;-77
2022/08/12 01:34:02;;;;;;;12.18;9.50;;;;;;;22.08;72.60;100272.09;1786184;79;21050;-75
2022/08/12 01:36:35;;;;;;;11.05;9.90;;;;;;;22.07;72.54;100266.40;1783130;79;21429;-77
2022/08/12 01:39:03;;;;;;;;;;;;;;;22.06;72.55;100266.05;1793377;79;21015;-77
2022/08/12 01:41:34;;;;;;;10.70;9.40;;;;;;;22.04;72.67;100262.22;1764207;79;20164;-78
2022/08/12 01:44:02;;;;;;;11.20;9.73;;;;;;;22.01;72.74;100259.94;1793016;79;21792;-77
2022/08/12 01:46:49;;;;;;;10.00;9.10;;;;;;;21.98;72.80;100248.22;1739870;81;21007;-76
2022/08/12 01:49:45;;;;;;;11.90;9.20;;;;;;;21.97;72.82;100245.22;1791945;79;21532;-77
2022/08/12 01:52:46;;;;;;;10.85;9.75;;;;;;;21.95;72.75;100247.28;1782435;79;21043;-77
2022/08/12 01:55:13;;;;;;;10.28;9.25;;;;;;;21.93;72.73;100235.38;1791623;79;20925;-78
2022/08/12 01:57:48;;;;;;;10.60;9.48;;;;;;;21.94;72.77;100232.17;1773202;79;23118;-76
2022/08/12 02:00:18;;;;;;;12.50;9.90;;;;;;;21.93;72.72;100231.87;1789229;79;21026;-77
2022/08/12 02:02:57;;;;;;;10.13;9.05;;;;;;;21.95;72.72;100231.14;1787086;79;21045;-76
2022/08/12 02:12:00;;;;;;;11.00;8.78;;;;;;;21.93;72.58;100238.59;1789918;79;21536;-75
2022/08/12 02:14:52;;;;;;;10.18;9.18;;;;;;;21.91;72.56;100233.41;1785303;79;21499;-76
2022/08/12 02:17:42;;;;;;;9.78;8.90;;;;;;;21.90;72.56;100229.55;1814699;79;21532;-76
2022/08/12 02:20:37;;;;;;;9.93;8.55;;;;;;;21.88;72.69;100215.48;1789529;79;21020;-77
2022/08/12 02:23:06;;;;;;;9.93;8.95;;;;;;;21.84;72.78;100221.78;1797271;78;21035;-78
2022/08/12 02:25:38;;;;;;;10.90;9.20;;;;;;;21.84;72.90;100222.30;1767043;79;21883;-73
2022/08/12 02:28:05;;;;;;;12.13;9.33;;;;;;;21.85;72.98;100213.20;1797054;78;21442;-73
2022/08/12 02:30:33;;;;;;;27.27;24.65;;;;;;;21.83;73.05;100212.58;1783940;79;21156;-74
2022/08/12 02:33:00;;;;;;;11.68;10.05;;;;;;;21.82;73.15;100207.72;1771522;79;21055;-75
2022/08/12 02:35:30;;;;;;;10.35;8.73;;;;;;;21.81;73.31;100215.47;1775768;79;21046;-74
2022/08/12 02:37:59;;;;;;;9.83;8.33;;;;;;;21.82;73.41;100214.95;1779471;79;22407;-77
2022/08/12 02:40:27;;;;;;;10.20;8.85;;;;;;;21.84;73.52;100220.95;1765324;79;21006;-73
2022/08/12 02:43:01;;;;;;;10.32;8.95;;;;;;;21.83;73.59;100205.86;1781598;78;21506;-74
2022/08/12 02:45:54;;;;;;;9.20;8.30;;;;;;;21.82;73.62;100190.23;1793336;79;21067;-74
2022/08/12 02:48:31;;;;;;;10.50;8.98;;;;;;;21.82;73.62;100189.41;1797838;79;21071;-75
2022/08/12 02:51:05;;;;;;;12.88;8.55;;;;;;;21.81;73.63;100191.75;1764780;78;21938;-73
2022/08/12 02:53:35;;;;;;;9.20;8.23;;;;;;;21.82;73.64;100196.13;1773188;79;21090;-74
2022/08/12 02:56:02;;;;;;;8.73;7.97;;;;;;;21.83;73.59;100197.79;1774479;79;20992;-75
2022/08/12 02:58:31;;;;;;;11.22;8.40;;;;;;;21.85;73.57;100215.89;1793554;79;21075;-73
2022/08/12 03:01:00;;;;;;;8.90;7.75;;;;;;;21.87;73.46;100232.65;1772747;78;21016;-74
2022/08/12 03:03:31;;;;;;;8.95;8.03;;;;;;;21.88;73.27;100234.30;1785155;79;21847;-73
2022/08/12 03:06:02;;;;;;;8.80;7.85;;;;;;;21.88;73.10;100230.27;1791448;79;21808;-73
2022/08/12 03:08:39;;;;;;;13.20;8.25;;;;;;;21.89;72.99;100223.86;1783085;79;21030;-75
2022/08/12 03:11:19;;;;;;;11.12;8.60;;;;;;;21.90;72.89;100216.11;1792393;79;21027;-73
2022/08/12 03:13:53;;;;;;;9.30;8.40;;;;;;;21.90;72.84;100213.42;1787534;79;21061;-74
2022/08/12 03:16:19;;;;;;;14.95;8.53;;;;;;;21.89;72.82;100215.80;1783079;79;21853;-73
2022/08/12 03:18:46;;;;;;;13.50;8.50;;;;;;;21.90;72.79;100223.66;1767789;80;21003;-73
2022/08/12 03:21:16;;;;;;;10.25;8.33;;;;;;;21.91;72.74;100215.11;1764683;80;21041;-74
2022/08/12 03:23:42;;;;;;;10.28;8.18;;;;;;;21.91;72.73;100214.59;1792010;79;21028;-74
2022/08/12 03:26:08;;;;;;;9.08;8.10;;;;;;;21.94;72.79;100203.94;1763804;80;21495;-74
2022/08/12 03:28:50;;;;;;;9.18;8.13;;;;;;;21.94;72.80;100191.32;1778385;80;22517;-74
2022/08/12 03:31:29;;;;;;;9.40;8.08;;;;;;;21.95;72.77;100178.70;1795525;79;20928;-73
2022/08/12 03:34:07;;;;;;;10.50;8.00;;;;;;;21.94;72.89;100175.19;1756894;80;21557;-74
2022/08/12 03:36:37;;;;;;;9.20;8.08;;;;;;;21.95;73.02;100174.67;1746334;79;21498;-74
2022/08/12 03:41:56;;;;;;;9.80;8.20;;;;;;;21.97;73.09;100171.26;1810352;77;21883;-75
2022/08/12 04:01:57;;;;;;;8.88;8.08;;;;;;;21.98;72.73;100186.36;1779757;79;21046;-74
2022/08/12 04:04:32;;;;;;;11.78;8.40;;;;;;;21.99;72.64;100198.26;1800321;78;21088;-73
2022/08/12 04:06:58;;;;;;;9.33;7.92;;;;;;;22.02;72.58;100209.16;1780657;78;21026;-74
2022/08/12 04:09:24;;;;;;;11.10;8.28;;;;;;;22.02;72.53;100213.70;1818470;78;22165;-75
2022/08/12 04:14:36;;;;;;;9.75;8.25;;;;;;;22.03;72.59;100204.61;1774312;80;20991;-75
2022/08/12 04:17:03;;;;;;;9.85;8.03;;;;;;;22.03;72.56;100214.84;1758757;80;20997;-74
2022/08/12 04:19:31;;;;;;;10.63;7.80;;;;;;;22.03;72.34;100217.53;1770156;79;21514;-75
2022/08/12 04:21:57;;;;;;;10.15;7.85;;;;;;;22.05;72.15;100228.09;1824003;77;22811;-75
2022/08/12 04:24:25;;;;;;;8.35;7.55;;;;;;;22.09;71.99;100222.12;1796815;78;21638;-75
2022/08/12 04:26:52;;;;;;;9.08;7.53;;;;;;;22.12;71.77;100225.78;1793762;79;20995;-75
2022/08/12 04:29:21;;;;;;;10.65;8.00;;;;;;;22.17;71.69;100226.51;1791502;79;21030;-74
2022/08/12 04:31:48;;;;;;;10.78;8.05;;;;;;;22.21;71.49;100225.09;1792409;79;21007;-75
2022/08/12 04:34:16;;;;;;;17.73;8.50;;;;;;;22.26;71.40;100222.09;1794091;77;21983;-74
2022/08/12 04:36:42;;;;;;;12.07;8.03;;;;;;;22.31;71.16;100219.34;1783254;79;21066;-74
2022/08/12 04:39:10;;;;;;;12.45;7.80;;;;;;;22.35;70.94;100216.02;1778918;79;21525;-75
2022/08/12 04:41:38;;;;;;;12.28;7.70;;;;;;;22.41;70.88;100218.44;1790075;79;21450;-74
2022/08/12 04:44:05;;;;;;;8.98;7.40;;;;;;;22.46;70.59;100222.67;1784396;79;21003;-74
2022/08/12 04:46:33;;;;;;;9.50;7.72;;;;;;;22.49;70.45;100217.73;1786161;78;22200;-75
2022/08/12 04:49:01;;;;;;;10.03;7.80;;;;;;;22.56;70.43;100225.80;1783929;79;21081;-74
2022/08/12 04:51:28;;;;;;;13.05;7.60;;;;;;;22.62;70.13;100226.87;1830033;77;21005;-75
2022/08/12 04:53:55;;;;;;;10.98;7.60;;;;;;;22.68;70.03;100223.34;1830999;77;21017;-75
2022/08/12 04:56:21;;;;;;;10.20;7.42;;;;;;;22.73;69.57;100215.50;1847865;76;20989;-74
2022/08/12 04:58:48;;;;;;;10.98;8.08;;;;;;;22.77;69.24;100224.81;1828253;77;21826;-75
2022/08/12 05:01:14;;;;;;;10.50;7.42;;;;;;;22.78;68.82;100225.98;1818214;77;21040;-75
2022/08/12 05:03:40;;;;;;;11.50;7.87;;;;;;;22.82;68.68;100231.25;1823376;77;21040;-74
2022/08/12 05:06:07;;;;;;;11.85;7.55;;;;;;;22.84;68.29;100230.55;1840902;77;20985;-74
2022/08/12 05:08:35;;;;;;;9.08;7.42;;;;;;;22.84;68.06;100240.50;1836163;77;21471;-74
2022/08/12 05:11:01;;;;;;;10.40;7.25;;;;;;;22.82;67.90;100239.84;1816965;77;21733;-75
2022/08/12 05:13:38;;;;;;;11.15;7.40;;;;;;;22.79;67.80;100237.06;1844578;77;20993;-74
2022/08/12 05:16:05;;;;;;;8.58;7.58;;;;;;;22.79;67.83;100243.79;1834325;77;21021;-74
2022/08/12 05:18:41;;;;;;;9.03;7.28;;;;;;;22.78;67.63;100240.79;1824601;77;20986;-72
2022/08/12 05:21:08;;;;;;;11.38;7.17;;;;;;;22.75;67.65;100245.22;1827442;77;20962;-72
2022/08/12 05:23:36;;;;;;;9.83;8.25;;;;;;;22.72;67.66;100246.15;1766010;79;22520;-74
2022/08/12 05:26:04;;;;;;;8.70;7.55;;;;;;;22.71;67.70;100243.98;1765944;79;21230;-75
2022/08/12 05:28:31;;;;;;;11.45;7.95;;;;;;;22.67;67.72;100245.40;1787308;79;21003;-76
2022/08/12 05:31:00;;;;;;;9.75;8.00;;;;;;;22.65;67.87;100249.34;1779702;80;21079;-75
2022/08/12 05:33:37;;;;;;;14.35;8.03;;;;;;;22.65;67.97;100254.72;1785193;78;20999;-76
2022/08/12 05:36:07;;;;;;;14.05;7.85;;;;;;;22.67;68.11;100252.65;1786034;79;22487;-76
2022/08/12 05:41:19;;;;;;;10.18;8.33;;;;;;;22.74;68.26;100248.94;1818227;77;21069;-79
2022/08/12 05:43:51;;;;;;;8.98;7.85;;;;;;;22.76;68.19;100247.39;1834874;77;21009;-84
2022/08/12 05:46:18;;;;;;;10.95;8.00;;;;;;;22.79;68.23;100241.09;1799142;77;21025;-77
2022/08/12 05:48:46;;;;;;;8.93;8.03;;;;;;;22.85;68.19;100226.00;1818909;77;22289;-75
2022/08/12 05:51:12;;;;;;;14.20;8.43;;;;;;;22.88;68.05;100226.13;1839019;77;21010;-78
2022/08/12 05:53:39;;;;;;;10.95;8.18;;;;;;;22.93;68.09;100222.28;1828708;77;20990;-79
2022/08/12 05:56:06;;;;;;;11.97;7.62;;;;;;;23.02;68.04;100234.52;1846089;77;21017;-76
2022/08/12 05:58:33;;;;;;;9.28;7.92;;;;;;;23.11;67.90;100231.93;1822469;77;21004;-76
2022/08/12 06:01:00;;;;;;;12.85;8.38;;;;;;;23.20;67.65;100223.95;1818128;77;21925;-76
2022/08/12 06:03:27;;;;;;;10.78;8.30;;;;;;;23.25;67.36;100216.58;1816298;77;20974;-78
2022/08/12 06:05:55;;;;;;;9.33;8.38;;;;;;;23.31;67.38;100211.20;1843230;77;21017;-75
2022/08/12 06:08:23;;;;;;;9.28;7.83;;;;;;;23.40;67.23;100210.46;1844890;77;21024;-75
2022/08/12 06:10:51;;;;;;;11.93;8.08;;;;;;;23.46;66.67;100201.55;1831845;77;21044;-75
2022/08/12 06:13:17;;;;;;;9.15;8.08;;;;;;;23.51;66.43;100200.91;1835152;77;21950;-74
2022/08/12 06:15:43;;;;;;;10.18;8.03;;;;;;;23.55;66.25;100198.12;1834286;77;21033;-75
2022/08/12 06:18:11;;;;;;;12.23;8.65;;;;;;;23.61;66.28;100204.03;1817305;77;20870;-80
2022/08/12 06:20:37;;;;;;;11.05;8.50;;;;;;;23.68;66.18;100211.06;1821803;77;21120;-76
2022/08/12 06:23:04;;;;;;;11.08;8.73;;;;;;;23.80;66.00;100208.54;1831281;77;21443;-75
2022/08/12 06:25:33;;;;;;;10.32;8.20;;;;;;;23.86;65.63;100196.91;1832230;76;21818;-75
2022/08/12 06:28:02;;;;;;;11.60;8.70;;;;;;;23.92;65.53;100212.23;1819398;77;20966;-76
2022/08/12 06:30:30;;;;;;;10.65;8.70;;;;;;;23.99;65.14;100208.17;1815444;77;21084;-77
2022/08/12 06:32:56;;;;;;;9.50;8.55;;;;;;;24.02;65.24;100198.28;1814390;77;21089;-77
2022/08/12 06:35:25;;;;;;;13.35;8.50;;;;;;;24.08;65.41;100200.14;1814854;77;21064;-75
2022/08/12 06:37:54;;;;;;;11.75;8.35;;;;;;;24.20;65.30;100184.92;1829921;77;21869;-75
2022/08/12 06:43:05;;;;;;;11.38;8.80;;;;;;;24.34;64.42;100204.62;1824721;77;21512;-75
2022/08/12 06:45:33;;;;;;;11.70;8.38;;;;;;;24.40;63.98;100207.80;1814829;77;21021;-76
2022/08/12 06:48:07;;;;;;;10.13;8.95;;;;;;;24.47;63.98;100212.64;1804544;78;21021;-75
2022/08/12 06:50:34;;;;;;;9.63;8.68;;;;;;;24.53;63.55;100217.19;1827417;77;21942;-76
2022/08/12 06:53:03;;;;;;;11.00;8.55;;;;;;;24.59;63.37;100216.00;1814269;76;21096;-76
2022/08/12 06:55:29;;;;;;;10.45;8.80;;;;;;;24.70;63.46;100222.05;1834521;77;21065;-75
2022/08/12 06:58:00;;;;;;;10.93;8.40;;;;;;;24.82;63.43;100223.03;1832678;77;20986;-77
2022/08/12 07:00:35;;;;;;;13.08;9.03;;;;;;;24.98;63.63;100217.07;1819541;77;21165;-76
2022/08/12 07:03:03;;;;;;;11.15;8.80;;;;;;;25.21;63.35;100235.97;1825162;77;21826;-75
2022/08/12 07:05:31;;;;;;;17.62;8.60;;;;;;;25.44;63.04;100246.16;1843230;77;21098;-77
2022/08/12 07:08:05;;;;;;;10.50;8.43;;;;;;;25.62;61.36;100244.84;1819148;77;21041;-75
2022/08/12 07:10:32;;;;;;;10.60;8.50;;;;;;;25.65;60.66;100253.32;1819197;77;21085;-75
2022/08/12 07:13:01;;;;;;;16.90;8.18;;;;;;;25.69;60.82;100253.20;1837812;77;21124;-75
2022/08/12 07:15:30;;;;;;;9.10;8.23;;;;;;;25.73;60.96;100248.19;1820750;77;23509;-77
2022/08/12 07:18:17;;;;;;;12.00;8.68;;;;;;;25.78;61.04;100257.00;1803031;78;21077;-76
2022/08/12 07:20:46;;;;;;;9.63;8.50;;;;;;;25.84;60.81;100240.67;1781509;80;21528;-77
2022/08/12 07:23:14;;;;;;;12.60;8.70;;;;;;;25.95;60.59;100241.80;1805770;77;21043;-77
2022/08/12 07:25:41;;;;;;;13.38;8.78;;;;;;;26.07;60.53;100251.38;1764630;78;20990;-78
2022/08/12 07:28:18;;;;;;;15.90;8.35;;;;;;;26.18;60.29;100247.37;1799523;78;21960;-75
2022/08/12 07:30:51;;;;;;;12.15;9.10;;;;;;;26.30;59.93;100253.38;1785328;79;21030;-79
2022/08/12 07:33:16;;;;;;;11.90;8.63;;;;;;;26.29;59.45;100249.84;1798928;79;21030;-75
2022/08/12 07:35:47;;;;;;;11.03;9.18;;;;;;;26.21;59.04;100244.73;1789376;79;21501;-76
2022/08/12 07:38:29;;;;;;;12.20;8.73;;;;;;;26.12;59.04;100250.97;1786771;79;21439;-78
2022/08/12 07:41:12;;;;;;;9.88;8.85;;;;;;;26.06;59.65;100254.61;1785880;79;21807;-75
2022/08/12 07:43:52;;;;;;;11.45;8.78;;;;;;;26.08;59.66;100262.49;1777306;79;21023;-76
2022/08/12 07:46:26;;;;;;;10.68;8.65;;;;;;;26.10;59.92;100258.50;1796703;79;21057;-90
2022/08/12 07:48:55;;;;;;;11.65;8.83;;;;;;;26.09;59.64;100258.73;1804875;77;21049;-75
2022/08/12 07:51:22;;;;;;;14.65;9.05;;;;;;;26.04;59.61;100253.16;1793523;79;21031;-77
2022/08/12 07:53:49;;;;;;;11.40;8.73;;;;;;;26.07;59.77;100250.02;1782940;79;21869;-75
2022/08/12 07:56:17;;;;;;;11.45;9.30;;;;;;;26.13;60.16;100253.98;1782678;79;21474;-75
2022/08/12 07:58:43;;;;;;;9.33;8.35;;;;;;;26.22;59.96;100247.20;1789566;79;21019;-75
2022/08/12 08:01:14;;;;;;;11.12;9.20;;;;;;;26.27;60.01;100243.83;1740185;81;21012;-74
2022/08/12 08:04:54;;;;;;;10.65;8.78;;;;;;;26.35;59.43;100245.41;1795427;79;21038;-76
2022/08/12 08:06:11;;;;;;;11.38;8.90;;;;;;;26.39;59.62;100247.45;1767888;79;21987;-76
2022/08/12 08:08:40;;;;;;;12.47;9.38;;;;;;;26.49;59.50;100245.02;1784372;79;21042;-76
2022/08/12 08:13:52;;;;;;;10.00;8.75;;;;;;;26.72;59.61;100248.33;1782813;79;20983;-78
2022/08/12 08:16:19;;;;;;;11.22;8.75;;;;;;;26.98;59.86;100259.84;1796368;79;21296;-82
2022/08/12 08:18:46;;;;;;;9.73;8.73;;;;;;;27.22;58.34;100262.95;1799081;79;22370;-75
2022/08/12 08:21:14;;;;;;;13.03;8.50;;;;;;;27.39;58.36;100266.59;1783371;79;21036;-76
2022/08/12 08:26:24;;;;;;;9.68;8.68;;;;;;;27.76;56.30;100269.11;1745517;79;21066;-80
2022/08/12 08:28:46;;;;;;;11.03;8.80;;;;;;;27.87;56.41;100270.98;1766545;79;21040;-74
2022/08/12 08:31:13;;;;;;;12.47;8.70;;;;;;;27.95;56.21;100268.45;1740805;81;21831;-76
2022/08/12 08:33:40;;;;;;;11.70;8.70;;;;;;;28.05;56.44;100271.91;1748753;81;21001;-78
2022/08/12 08:36:08;;;;;;;11.18;8.40;;;;;;;28.20;55.80;100271.71;1749666;81;21459;-74
2022/08/12 08:38:34;;;;;;;10.75;8.60;;;;;;;28.36;55.45;100277.47;1731704;81;21491;-74
2022/08/12 08:43:47;;;;;;;9.50;8.55;;;;;;;28.42;53.50;100285.48;1745417;81;21861;-77
2022/08/12 08:46:14;;;;;;;11.40;8.35;;;;;;;28.48;53.13;100290.50;1763531;81;20933;-77
2022/08/12 08:48:41;;;;;;;12.45;8.60;;;;;;;28.48;52.65;100292.69;1760138;81;21033;-76
2022/08/12 08:51:08;;;;;;;18.42;9.00;;;;;;;28.51;53.53;100298.98;1750086;81;21036;-76
2022/08/12 08:53:34;;;;;;;14.68;9.08;;;;;;;28.61;54.09;100312.48;1742893;81;21008;-76
2022/08/12 08:56:01;;;;;;;13.90;8.80;;;;;;;28.61;53.28;100307.05;1746069;81;21843;-75
2022/08/12 08:58:27;;;;;;;10.95;8.15;;;;;;;28.49;53.26;100307.92;1749354;81;21013;-77
2022/08/12 09:00:55;;;;;;;16.10;8.68;;;;;;;28.35;53.69;100301.09;1750824;81;21115;-76
2022/08/12 09:03:21;;;;;;;13.55;8.13;;;;;;;28.28;54.49;100310.41;1733412;81;21469;-75
2022/08/12 09:05:48;;;;;;;12.73;8.60;;;;;;;28.26;55.03;100313.90;1759482;81;21481;-74
2022/08/12 09:08:14;;;;;;;13.35;8.40;;;;;;;28.23;55.08;100316.56;1743826;80;21525;-77
2022/08/12 09:10:41;;;;;;;10.28;8.48;;;;;;;28.27;55.35;100322.34;1755645;81;21461;-74
2022/08/12 09:13:26;;;;;;;15.43;8.73;;;;;;;28.28;54.98;100315.84;1754467;81;21475;-79
2022/08/12 09:15:53;;;;;;;12.23;8.55;;;;;;;28.25;55.08;100313.08;1750499;80;21172;-74
2022/08/12 09:18:20;;;;;;;11.78;8.18;;;;;;;28.27;55.58;100320.44;1796132;78;21004;-75
2022/08/12 09:20:49;;;;;;;15.38;8.93;;;;;;;28.31;55.76;100319.48;1808736;79;21808;-76
2022/08/12 09:23:14;;;;;;;9.80;8.50;;;;;;;28.22;54.77;100325.78;1789959;78;20988;-75
2022/08/12 09:25:43;;;;;;;15.58;8.35;;;;;;;28.05;55.06;100324.86;1792199;78;21008;-75
2022/08/12 09:28:10;;;;;;;10.15;8.73;;;;;;;27.93;55.25;100325.70;1755650;78;21041;-77
2022/08/12 09:30:38;;;;;;;11.68;8.85;;;;;;;27.84;55.25;100324.93;1759189;81;21051;-76
2022/08/12 09:33:05;;;;;;;9.70;8.60;;;;;;;27.83;55.99;100326.00;1807424;77;21747;-74
2022/08/12 09:35:32;;;;;;;13.15;8.80;;;;;;;27.83;55.72;100320.03;1738447;81;21041;-74
2022/08/12 09:38:01;;;;;;;11.30;8.93;;;;;;;27.88;55.93;100316.59;1814998;77;21315;-73
2022/08/12 09:40:28;;;;;;;13.03;8.48;;;;;;;27.93;55.54;100310.77;1766403;79;21479;-70
2022/08/12 09:45:45;;;;;;;11.95;8.45;;;;;;;28.01;55.43;100304.16;1759726;79;21802;-73
2022/08/12 09:48:08;;;;;;;11.20;9.73;;;;;;;28.04;55.32;100306.38;1796691;78;21037;-73
2022/08/12 09:50:35;;;;;;;23.75;21.40;;;;;;;28.07;55.38;100305.08;1797296;78;20899;-73
2022/08/12 09:53:15;;;;;;;14.70;8.98;;;;;;;28.13;55.74;100308.20;1788101;79;22192;-72
2022/08/12 09:55:46;;;;;;;14.98;8.80;;;;;;;28.21;55.15;100313.27;1785679;79;21032;-73
2022/08/12 09:58:17;;;;;;;11.12;8.65;;;;;;;28.32;55.46;100306.19;1802508;78;21848;-72
2022/08/12 10:00:47;;;;;;;12.90;8.45;;;;;;;28.47;55.48;100304.63;1741273;81;21013;-72
2022/08/12 10:03:15;;;;;;;12.55;9.00;;;;;;;28.60;54.97;100309.48;1805100;78;21050;-74
2022/08/12 10:05:45;;;;;;;11.60;8.23;;;;;;;28.61;53.99;100318.74;1810325;78;21089;-71
2022/08/12 10:08:15;;;;;;;11.57;8.35;;;;;;;28.54;54.45;100315.87;1809220;78;21519;-72
2022/08/12 10:13:42;;;;;;;10.68;8.60;;;;;;;28.44;54.76;100319.20;1805650;78;21604;-72
2022/08/12 10:16:20;;;;;;;14.00;8.60;;;;;;;28.38;54.62;100321.01;1811848;78;21065;-75
2022/08/12 10:18:53;;;;;;;14.38;8.50;;;;;;;28.34;54.98;100322.53;1767546;79;21001;-75
2022/08/12 10:21:24;;;;;;;15.08;7.87;;;;;;;28.36;54.69;100320.40;1806643;78;21013;-78
2022/08/12 10:23:52;;;;;;;11.83;7.67;;;;;;;28.44;54.68;100316.48;1813503;77;21878;-74
2022/08/12 10:31:37;;;;;;;13.55;7.75;;;;;;;28.95;52.87;100325.16;1793868;80;21004;-73
2022/08/12 10:34:05;;;;;;;10.30;7.92;;;;;;;29.20;54.11;100330.20;1800426;78;20991;-75
2022/08/12 10:36:33;;;;;;;15.15;10.68;;;;;;;29.51;52.68;100332.93;1804008;78;21799;-74
2022/08/12 10:39:02;;;;;;;14.40;9.18;;;;;;;29.91;52.60;100340.89;1803547;77;20992;-75
2022/08/12 10:44:14;;;;;;;13.90;7.83;;;;;;;30.54;48.77;100352.95;1815601;78;20975;-75
2022/08/12 10:46:41;;;;;;;12.13;10.03;;;;;;;30.56;48.10;100351.61;1810295;77;21014;-73
2022/08/12 10:49:10;;;;;;;13.48;8.50;;;;;;;30.56;48.10;100351.61;1810894;77;22214;-74
2022/08/12 10:51:36;;;;;;;10.03;7.53;;;;;;;30.52;47.96;100356.48;1816375;78;20971;-75
2022/08/12 10:54:03;;;;;;;11.83;7.65;;;;;;;30.40;47.55;100352.48;1809464;77;21448;-76
2022/08/12 10:56:33;;;;;;;12.63;7.92;;;;;;;30.22;48.25;100361.81;1798831;78;21240;-76
2022/08/12 10:59:00;;;;;;;14.38;7.42;;;;;;;30.09;48.98;100356.17;1798028;78;20937;-76
2022/08/12 11:01:27;;;;;;;16.45;8.40;;;;;;;29.81;49.46;100361.16;1807242;78;21799;-74
2022/08/12 11:03:53;;;;;;;15.43;7.80;;;;;;;29.73;49.46;100352.62;1816403;77;22035;-76
2022/08/12 11:06:20;;;;;;;10.80;8.23;;;;;;;29.63;49.58;100346.48;1801002;78;21045;-77
2022/08/12 11:08:47;;;;;;;13.22;8.48;;;;;;;29.63;49.58;100346.48;1800538;78;21041;-77
2022/08/12 11:11:17;;;;;;;15.28;8.18;;;;;;;29.56;49.73;100348.00;1784411;78;21460;-74
2022/08/12 11:13:46;;;;;;;12.65;8.28;;;;;;;29.53;50.21;100355.81;1798079;78;21818;-75
2022/08/12 11:16:16;;;;;;;22.15;19.12;;;;;;;29.40;50.28;100354.22;1813256;77;20962;-74
2022/08/12 11:18:43;;;;;;;16.93;9.43;;;;;;;29.23;50.48;100358.80;1801535;78;21057;-75
2022/08/12 11:21:09;;;;;;;16.35;11.18;;;;;;;28.99;50.43;100355.39;1799268;78;20967;-76
2022/08/12 11:23:35;;;;;;;10.38;8.48;;;;;;;28.76;51.09;100354.39;1799686;78;21314;-76
2022/08/12 11:26:04;;;;;;;12.58;8.63;;;;;;;28.57;51.10;100351.56;1802545;78;22336;-76
2022/08/12 11:28:30;;;;;;;13.38;8.60;;;;;;;28.43;51.54;100341.47;1813186;78;20935;-78
2022/08/12 11:30:57;;;;;;;11.63;8.73;;;;;;;28.31;52.03;100340.68;1807204;78;21534;-74
2022/08/12 11:33:23;;;;;;;13.15;8.85;;;;;;;28.20;52.06;100344.22;1806618;77;21066;-74
2022/08/12 11:35:52;;;;;;;13.93;8.73;;;;;;;28.12;52.22;100339.97;1802939;78;21017;-75
2022/08/12 11:38:20;;;;;;;12.70;9.00;;;;;;;28.05;51.92;100331.11;1807639;78;21751;-75
2022/08/12 11:40:47;;;;;;;11.73;8.20;;;;;;;27.92;51.39;100329.48;1809719;77;21142;-73
2022/08/12 11:43:13;;;;;;;11.33;8.35;;;;;;;27.84;49.75;100331.72;1797094;78;20962;-73
2022/08/12 11:45:40;;;;;;;11.93;8.38;;;;;;;27.71;48.70;100334.14;1792701;78;21388;-75
2022/08/12 11:48:07;;;;;;;12.35;8.50;;;;;;;27.62;48.84;100334.16;1808862;77;21031;-74
2022/08/12 11:50:33;;;;;;;13.30;8.43;;;;;;;27.54;47.89;100329.08;1812178;77;21782;-73
2022/08/12 11:52:59;;;;;;;13.75;7.65;;;;;;;27.48;48.09;100327.29;1809042;77;20977;-73
2022/08/12 11:55:26;;;;;;;12.13;8.25;;;;;;;27.40;48.64;100320.31;1782319;78;20983;-72
2022/08/12 11:57:55;;;;;;;12.30;7.70;;;;;;;27.30;49.44;100326.84;1792622;78;21026;-71
2022/08/12 12:00:24;;;;;;;12.90;8.88;;;;;;;27.24;49.77;100325.91;1810938;77;21050;-72
2022/08/12 12:03:03;;;;;;;13.25;8.60;;;;;;;27.24;49.94;100319.13;1801687;77;21994;-72
2022/08/12 12:05:30;;;;;;;12.58;8.45;;;;;;;27.16;50.08;100318.63;1796722;78;21081;-73
2022/08/12 12:07:56;;;;;;;12.43;8.50;;;;;;;27.13;50.38;100306.90;1802952;78;21488;-72
2022/08/12 12:10:23;;;;;;;11.25;8.33;;;;;;;27.10;50.80;100298.67;1806836;78;21440;-71
2022/08/12 12:12:49;;;;;;;19.45;15.10;;;;;;;27.06;51.08;100298.86;1794797;78;21528;-71
2022/08/12 12:15:17;;;;;;;12.05;10.32;;;;;;;26.99;51.75;100289.42;1774201;80;21874;-72
2022/08/12 12:17:44;;;;;;;13.22;9.10;;;;;;;26.87;52.37;100284.50;1770746;79;20973;-72
2022/08/12 12:20:11;;;;;;;10.90;8.53;;;;;;;26.76;53.23;100279.34;1828113;77;21028;-72
2022/08/12 12:22:40;;;;;;;12.65;9.90;;;;;;;26.65;54.21;100278.78;1807053;77;21418;-72
2022/08/12 12:25:08;;;;;;;12.60;9.05;;;;;;;26.56;55.08;100270.67;1826055;77;21003;-74
2022/08/12 12:27:50;;;;;;;12.35;9.25;;;;;;;26.48;55.46;100269.62;1810822;77;22615;-76
2022/08/12 12:30:17;;;;;;;10.98;9.05;;;;;;;26.45;56.11;100264.14;1801936;77;21035;-76
2022/08/12 12:32:44;;;;;;;13.30;9.70;;;;;;;26.46;56.71;100256.84;1774690;78;21430;-78
2022/08/12 12:35:11;;;;;;;12.68;9.08;;;;;;;26.42;57.08;100246.98;1792762;78;21514;-76
2022/08/12 12:37:59;;;;;;;12.85;9.20;;;;;;;26.41;57.63;100243.15;1780594;79;21525;-77
2022/08/12 12:40:27;;;;;;;13.38;9.40;;;;;;;26.37;58.08;100246.00;1772132;79;21823;-77
2022/08/12 12:42:54;;;;;;;14.95;9.95;;;;;;;26.31;58.58;100238.24;1776265;78;21530;-76
2022/08/12 12:45:21;;;;;;;12.70;10.70;;;;;;;26.25;59.08;100233.23;1798628;79;21000;-76
2022/08/12 12:48:00;;;;;;;13.70;10.78;;;;;;;26.17;59.35;100225.41;1801409;79;21156;-76
2022/08/12 12:50:30;;;;;;;14.25;10.43;;;;;;;26.11;59.88;100222.25;1774522;79;21478;-76
2022/08/12 12:52:57;;;;;;;16.60;10.45;;;;;;;26.07;60.13;100218.36;1824219;77;22045;-76
2022/08/12 12:55:24;;;;;;;17.42;10.50;;;;;;;26.09;60.42;100217.59;1833074;77;21021;-78
2022/08/12 12:57:50;;;;;;;17.27;10.65;;;;;;;26.09;60.98;100202.72;1819073;76;21037;-76
2022/08/12 13:00:18;;;;;;;19.10;10.55;;;;;;;26.07;60.98;100189.94;1781305;79;21027;-77
2022/08/12 13:02:51;;;;;;;13.00;9.83;;;;;;;26.05;61.14;100197.97;1788068;79;21026;-76
2022/08/12 13:05:24;;;;;;;13.22;9.95;;;;;;;26.04;61.24;100202.55;1774514;78;21521;-76
2022/08/12 13:07:53;;;;;;;11.80;9.93;;;;;;;26.05;61.20;100196.08;1785226;79;21483;-77
2022/08/12 13:10:20;;;;;;;12.43;10.05;;;;;;;26.07;61.18;100195.35;1784976;78;21004;-77
2022/08/12 13:12:48;;;;;;;10.45;8.95;;;;;;;26.13;61.00;100194.95;1772261;79;21044;-76
2022/08/12 13:15:15;;;;;;;15.23;9.45;;;;;;;26.15;61.14;100191.48;1784246;78;21051;-76
2022/08/12 13:17:50;;;;;;;12.37;9.73;;;;;;;26.20;61.09;100193.81;1773291;79;21824;-76
2022/08/12 13:20:18;;;;;;;14.33;9.70;;;;;;;26.21;60.49;100196.82;1791073;78;21007;-76